Map

Track Data

SID SEASON NUMBER BASIN SUBBASIN NAME ISO_TIME NATURE LAT LON WMO_WIND WMO_PRES WMO_AGENCY TRACK_TYPE DIST2LAND LANDFALL IFLAG USA_AGENCY USA_ATCF_ID USA_LAT USA_LON USA_RECORD USA_STATUS USA_WIND USA_PRES USA_SSHS USA_R34_NE USA_R34_SE USA_R34_SW USA_R34_NW USA_R50_NE USA_R50_SE USA_R50_SW USA_R50_NW USA_R64_NE USA_R64_SE USA_R64_SW USA_R64_NW USA_POCI USA_ROCI USA_RMW USA_EYE TOKYO_LAT TOKYO_LON TOKYO_GRADE TOKYO_WIND TOKYO_PRES TOKYO_R50_DIR TOKYO_R50_LONG TOKYO_R50_SHORT TOKYO_R30_DIR TOKYO_R30_LONG TOKYO_R30_SHORT TOKYO_LAND CMA_LAT CMA_LON CMA_CAT CMA_WIND CMA_PRES HKO_LAT HKO_LON HKO_CAT HKO_WIND HKO_PRES NEWDELHI_LAT NEWDELHI_LON NEWDELHI_GRADE NEWDELHI_WIND NEWDELHI_PRES NEWDELHI_CI NEWDELHI_DP NEWDELHI_POCI REUNION_LAT REUNION_LON REUNION_TYPE REUNION_WIND REUNION_PRES REUNION_TNUM REUNION_CI REUNION_RMW REUNION_R34_NE REUNION_R34_SE REUNION_R34_SW REUNION_R34_NW REUNION_R50_NE REUNION_R50_SE REUNION_R50_SW REUNION_R50_NW REUNION_R64_NE REUNION_R64_SE REUNION_R64_SW REUNION_R64_NW BOM_LAT BOM_LON BOM_TYPE BOM_WIND BOM_PRES BOM_TNUM BOM_CI BOM_RMW BOM_R34_NE BOM_R34_SE BOM_R34_SW BOM_R34_NW BOM_R50_NE BOM_R50_SE BOM_R50_SW BOM_R50_NW BOM_R64_NE BOM_R64_SE BOM_R64_SW BOM_R64_NW BOM_ROCI BOM_POCI BOM_EYE BOM_POS_METHOD BOM_PRES_METHOD NADI_LAT NADI_LON NADI_CAT NADI_WIND NADI_PRES WELLINGTON_LAT WELLINGTON_LON WELLINGTON_WIND WELLINGTON_PRES DS824_LAT DS824_LON DS824_STAGE DS824_WIND DS824_PRES TD9636_LAT TD9636_LON TD9636_STAGE TD9636_WIND TD9636_PRES TD9635_LAT TD9635_LON TD9635_WIND TD9635_PRES TD9635_ROCI NEUMANN_LAT NEUMANN_LON NEUMANN_CLASS NEUMANN_WIND NEUMANN_PRES MLC_LAT MLC_LON MLC_CLASS MLC_WIND MLC_PRES USA_GUST BOM_GUST BOM_GUST_PER REUNION_GUST REUNION_GUST_PER USA_SEAHGT USA_SEARAD_NE USA_SEARAD_SE USA_SEARAD_SW USA_SEARAD_NW STORM_SPEED STORM_DIR
1907060S17041 1907 11 SI MM NOT_NAMED 1907-03-01 06:00:00 NR -17.4000 41.0000 reunion main 162 162 _____O________ -1 -17.4000 41.0000 99 9.90000 3 197
1907060S17041 1907 11 SI MM NOT_NAMED 1907-03-01 09:00:00 NR -17.5196 40.9525 main 169 161 _____P________ -1 -17.5196 40.9525 99 3 200
1907060S17041 1907 11 SI MM NOT_NAMED 1907-03-01 12:00:00 NR -17.6445 40.9095 main 169 169 _____P________ -1 -17.6445 40.9095 99 3 194
1907060S17041 1907 11 SI MM NOT_NAMED 1907-03-01 15:00:00 NR -17.7799 40.8755 main 186 186 _____P________ -1 -17.7799 40.8755 99 3 190
1907060S17041 1907 11 SI MM NOT_NAMED 1907-03-01 18:00:00 NR -17.9312 40.8550 main 195 195 _____P________ -1 -17.9312 40.8550 99 3 182
1907060S17041 1907 11 SI MM NOT_NAMED 1907-03-01 21:00:00 NR -18.1035 40.8526 main 213 213 _____P________ -1 -18.1035 40.8526 99 4 179
1907060S17041 1907 11 SI MM NOT_NAMED 1907-03-02 00:00:00 NR -18.3023 40.8729 main 232 232 _____P________ -1 -18.3023 40.8729 99 4 170
1907060S17041 1907 11 SI MM NOT_NAMED 1907-03-02 03:00:00 NR -18.5327 40.9204 main 252 252 _____P________ -1 -18.5327 40.9204 99 5 167
1907060S17041 1907 11 SI MM NOT_NAMED 1907-03-02 06:00:00 NR -18.8000 41.0000 reunion main 284 284 _____O________ -1 -18.8000 41.0000 99 9.90000 6 162
1907060S17041 1907 11 SI MM NOT_NAMED 1907-03-02 09:00:00 NR -19.1073 41.1158 main 315 305 _____P________ -1 -19.1073 41.1158 99 7 159
1907060S17041 1907 11 SI MM NOT_NAMED 1907-03-02 12:00:00 NR -19.4492 41.2700 main 305 274 _____P________ -1 -19.4492 41.2700 99 8 155
1907060S17041 1907 11 SI MM NOT_NAMED 1907-03-02 15:00:00 NR -19.8181 41.4644 main 274 230 _____P________ -1 -19.8181 41.4644 99 9 152
1907060S17041 1907 11 SI MM NOT_NAMED 1907-03-02 18:00:00 NR -20.2064 41.7006 main 230 179 _____P________ -1 -20.2064 41.7006 99 9 148
1907060S17041 1907 11 SI MM NOT_NAMED 1907-03-02 21:00:00 NR -20.6064 41.9805 main 179 132 _____P________ -1 -20.6064 41.9805 99 10 145
1907060S17041 1907 11 SI MM NOT_NAMED 1907-03-03 00:00:00 NR -21.0104 42.3058 main 132 82 _____P________ -1 -21.0104 42.3058 99 10 141
1907060S17041 1907 11 SI MM NOT_NAMED 1907-03-03 03:00:00 NR -21.4109 42.6784 main 82 30 _____P________ -1 -21.4109 42.6784 99 11 137
1907060S17041 1907 11 SI MM NOT_NAMED 1907-03-03 06:00:00 NR -21.8000 43.1000 reunion main 30 0 _____O________ -1 -21.8000 43.1000 99 9.90000 12 131
1907060S17041 1907 11 SI MM NOT_NAMED 1907-03-03 09:00:00 NR -22.1901 43.6362 main 0 0 _____P________ -1 -22.1901 43.6362 99 13 126
1907060S17041 1907 11 SI MM NOT_NAMED 1907-03-03 12:00:00 NR -22.5766 44.2369 main 0 0 _____P________ -1 -22.5766 44.2369 99 14 124
1907060S17041 1907 11 SI MM NOT_NAMED 1907-03-03 15:00:00 NR -22.9517 44.8779 main 0 0 _____P________ -1 -22.9517 44.8779 99 14 121
1907060S17041 1907 11 SI MM NOT_NAMED 1907-03-03 18:00:00 NR -23.3077 45.5342 main 0 0 _____P________ -1 -23.3077 45.5342 99 14 120
1907060S17041 1907 11 SI MM NOT_NAMED 1907-03-03 21:00:00 NR -23.6372 46.1805 main 0 0 _____P________ -1 -23.6372 46.1805 99 13 119
1907060S17041 1907 11 SI MM NOT_NAMED 1907-03-04 00:00:00 NR -23.9333 46.7910 main 0 0 _____P________ -1 -23.9333 46.7910 99 12 118
1907060S17041 1907 11 SI MM NOT_NAMED 1907-03-04 03:00:00 NR -24.1896 47.3396 main 0 0 _____P________ -1 -24.1896 47.3396 99 10 117
1907060S17041 1907 11 SI MM NOT_NAMED 1907-03-04 06:00:00 NR -24.4000 47.8000 reunion main 46 46 _____O________ -1 -24.4000 47.8000 99 9.90000 8 117
1907060S17041 1907 11 SI MM NOT_NAMED 1907-03-04 09:00:00 NR -24.5607 48.1527 main 91 91 _____P________ -1 -24.5607 48.1527 99 6 117
1907060S17041 1907 11 SI MM NOT_NAMED 1907-03-04 12:00:00 NR -24.6766 48.4047 main 113 113 _____P________ -1 -24.6766 48.4047 99 4 117
1907060S17041 1907 11 SI MM NOT_NAMED 1907-03-04 15:00:00 NR -24.7546 48.5700 main 135 135 _____P________ -1 -24.7546 48.5700 99 3 118
1907060S17041 1907 11 SI MM NOT_NAMED 1907-03-04 18:00:00 NR -24.8012 48.6631 main 145 145 _____P________ -1 -24.8012 48.6631 99 1 120
1907060S17041 1907 11 SI MM NOT_NAMED 1907-03-04 21:00:00 NR -24.8227 48.6981 main 145 145 _____P________ -1 -24.8227 48.6981 99 0 0
1907060S17041 1907 11 SI MM NOT_NAMED 1907-03-05 00:00:00 NR -24.8256 48.6896 main 145 145 _____P________ -1 -24.8256 48.6896 99 0 280
1907060S17041 1907 11 SI MM NOT_NAMED 1907-03-05 03:00:00 NR -24.8159 48.6520 main 145 135 _____P________ -1 -24.8159 48.6520 99 1 289
1907060S17041 1907 11 SI MM NOT_NAMED 1907-03-05 06:00:00 NR -24.8000 48.6000 reunion main 135 _____O________ -1 -24.8000 48.6000 99 9.90000 1 294

About IBTrACS Database

This database is a web-friendly format of International Best Track Archive for Climate Stewardship (IBTrACS), a global best track data archive curated by NOAA dating back to 1842.

Updated: 2021-10-21